createdAt,value
2023-01-08T00:01:55.135Z,100399.80
2023-01-08T00:04:23.992Z,100397.96
2023-01-08T00:06:52.342Z,100393.81
2023-01-08T00:09:20.501Z,100396.09
2023-01-08T00:11:50.569Z,100396.97
2023-01-08T00:14:18.914Z,100389.09
2023-01-08T00:16:49.131Z,100386.66
2023-01-08T00:19:19.153Z,100389.24
2023-01-08T00:21:47.278Z,100385.29
2023-01-08T00:24:15.430Z,100382.20
2023-01-08T00:26:43.484Z,100382.48
2023-01-08T00:29:11.583Z,100385.15
2023-01-08T00:31:39.634Z,100389.04
2023-01-08T00:34:07.738Z,100386.42
2023-01-08T00:36:37.928Z,100386.05
2023-01-08T00:39:05.976Z,100383.69
2023-01-08T00:41:34.023Z,100383.57
2023-01-08T00:44:01.967Z,100385.23
2023-01-08T00:46:29.969Z,100384.21
2023-01-08T00:48:57.988Z,100386.33
2023-01-08T00:51:26.434Z,100383.39
2023-01-08T00:53:56.836Z,100386.46
2023-01-08T00:56:25.044Z,100388.80
2023-01-08T00:58:53.261Z,100392.16
2023-01-08T01:01:21.609Z,100391.27
2023-01-08T01:03:49.931Z,100385.15
2023-01-08T01:06:18.225Z,100383.90
2023-01-08T01:08:46.322Z,100383.86
2023-01-08T01:11:25.443Z,100383.15
2023-01-08T01:13:57.154Z,100384.30
2023-01-08T01:16:25.871Z,100381.48
2023-01-08T01:18:55.112Z,100380.93
2023-01-08T01:21:29.950Z,100377.82
2023-01-08T01:24:00.322Z,100380.27
2023-01-08T01:26:31.494Z,100377.60
2023-01-08T01:29:02.314Z,100376.72
2023-01-08T01:31:32.400Z,100377.02
2023-01-08T01:34:04.750Z,100376.96
2023-01-08T01:36:33.145Z,100375.98
2023-01-08T01:39:01.542Z,100372.55
2023-01-08T01:41:39.524Z,100371.90
2023-01-08T01:44:48.010Z,100369.48
2023-01-08T01:47:37.727Z,100367.98
2023-01-08T01:50:11.875Z,100363.11
2023-01-08T01:52:53.548Z,100364.74
2023-01-08T01:55:21.792Z,100362.45
2023-01-08T01:57:55.288Z,100359.86
2023-01-08T02:00:24.137Z,100360.72
2023-01-08T02:02:52.359Z,100355.85
2023-01-08T02:05:22.307Z,100353.34
2023-01-08T02:08:02.491Z,100351.75
2023-01-08T02:10:52.269Z,100352.81
2023-01-08T02:13:29.921Z,100355.74
2023-01-08T02:16:05.637Z,100355.77
2023-01-08T02:18:55.487Z,100359.11
2023-01-08T02:21:42.673Z,100355.96
2023-01-08T02:24:22.990Z,100356.14
2023-01-08T02:26:55.604Z,100358.23
2023-01-08T02:29:28.583Z,100361.42
2023-01-08T02:31:56.908Z,100367.36
2023-01-08T02:34:25.036Z,100364.45
2023-01-08T02:36:55.134Z,100363.94
2023-01-08T02:39:45.292Z,100359.52
2023-01-08T02:42:40.710Z,100357.11
2023-01-08T02:45:27.111Z,100359.33
2023-01-08T02:48:07.819Z,100358.11
2023-01-08T02:50:39.304Z,100356.42
2023-01-08T02:53:12.185Z,100356.86
2023-01-08T02:55:43.128Z,100356.05
2023-01-08T02:58:12.662Z,100356.71
2023-01-08T03:00:44.727Z,100352.91
2023-01-08T03:03:30.045Z,100349.86
2023-01-08T03:06:03.108Z,100350.31
2023-01-08T03:08:53.307Z,100353.02
2023-01-08T03:11:30.001Z,100351.48
2023-01-08T03:14:36.370Z,100351.02
2023-01-08T03:17:35.185Z,100349.88
2023-01-08T03:20:17.304Z,100348.86
2023-01-08T03:22:49.666Z,100346.50
2023-01-08T03:25:20.603Z,100345.52
2023-01-08T03:27:55.871Z,100346.00
2023-01-08T03:30:25.936Z,100344.23
2023-01-08T03:32:55.956Z,100340.69
2023-01-08T03:35:26.227Z,100343.90
2023-01-08T03:38:00.749Z,100346.52
2023-01-08T03:40:41.803Z,100347.21
2023-01-08T03:43:11.461Z,100351.35
2023-01-08T03:45:47.768Z,100354.11
2023-01-08T03:48:20.934Z,100354.27
2023-01-08T03:50:51.348Z,100355.46
2023-01-08T03:53:19.589Z,100352.54
2023-01-08T03:55:47.640Z,100351.25
2023-01-08T03:58:15.747Z,100352.54
2023-01-08T04:00:44.732Z,100353.17
2023-01-08T04:03:12.886Z,100350.09
2023-01-08T04:05:41.115Z,100343.67
2023-01-08T04:08:09.308Z,100343.91
2023-01-08T04:10:37.866Z,100339.52
2023-01-08T04:13:06.168Z,100338.82
2023-01-08T04:15:34.655Z,100342.88
2023-01-08T04:18:04.914Z,100339.56
2023-01-08T04:20:33.223Z,100339.65
2023-01-08T04:23:01.358Z,100338.54
2023-01-08T04:25:29.571Z,100337.16
2023-01-08T04:27:57.716Z,100337.52
2023-01-08T04:30:25.942Z,100338.64
2023-01-08T04:32:53.969Z,100340.46
2023-01-08T04:35:21.902Z,100344.08
2023-01-08T04:37:50.206Z,100352.28
2023-01-08T04:40:20.593Z,100359.63
2023-01-08T04:42:48.604Z,100354.17
2023-01-08T04:45:18.175Z,100350.75
2023-01-08T04:47:46.459Z,100348.18
2023-01-08T04:50:14.501Z,100351.64
2023-01-08T04:52:42.491Z,100351.79
2023-01-08T04:55:10.443Z,100351.42
2023-01-08T04:57:38.497Z,100352.55
2023-01-08T05:00:07.570Z,100355.63
2023-01-08T05:02:35.912Z,100354.45
2023-01-08T05:05:04.332Z,100355.17
2023-01-08T05:07:32.398Z,100352.63
2023-01-08T05:10:00.611Z,100350.55
2023-01-08T05:12:28.647Z,100353.05
2023-01-08T05:14:56.849Z,100350.84
2023-01-08T05:17:24.996Z,100349.67
2023-01-08T05:19:53.132Z,100355.16
2023-01-08T05:22:21.377Z,100355.09
2023-01-08T05:24:49.613Z,100358.40
2023-01-08T05:27:18.115Z,100361.45
2023-01-08T05:29:46.144Z,100364.26
2023-01-08T05:32:18.263Z,100368.95
2023-01-08T05:34:49.301Z,100372.84
2023-01-08T05:37:19.342Z,100373.30
2023-01-08T05:39:53.322Z,100373.79
2023-01-08T05:42:26.327Z,100373.89
2023-01-08T05:44:55.912Z,100371.23
2023-01-08T05:47:24.105Z,100371.02
2023-01-08T05:49:52.261Z,100374.52
2023-01-08T05:52:21.896Z,100375.85
2023-01-08T05:54:52.710Z,100378.05
2023-01-08T05:57:25.203Z,100378.15
2023-01-08T05:59:57.458Z,100385.62
2023-01-08T06:02:25.712Z,100385.80
2023-01-08T06:04:56.585Z,100386.34
2023-01-08T06:07:24.847Z,100385.94
2023-01-08T06:09:52.892Z,100383.63
2023-01-08T06:12:26.134Z,100383.64
2023-01-08T06:14:58.542Z,100383.80
2023-01-08T06:17:26.673Z,100384.27
2023-01-08T06:19:58.037Z,100382.71
2023-01-08T06:22:29.520Z,100386.11
2023-01-08T06:25:06.317Z,100388.77
2023-01-08T06:27:34.702Z,100386.75
2023-01-08T06:30:06.077Z,100387.68
2023-01-08T06:32:36.747Z,100385.05
2023-01-08T06:35:05.320Z,100387.16
2023-01-08T06:37:33.471Z,100386.06
2023-01-08T06:40:01.647Z,100386.48
2023-01-08T06:42:38.656Z,100384.69
2023-01-08T06:45:08.095Z,100387.50
2023-01-08T06:47:36.734Z,100393.09
2023-01-08T06:50:13.151Z,100389.15
2023-01-08T06:52:43.559Z,100392.52
2023-01-08T06:55:14.362Z,100396.16
2023-01-08T06:57:45.620Z,100393.80
2023-01-08T07:00:17.132Z,100394.06
2023-01-08T07:03:08.297Z,100395.90
2023-01-08T07:05:36.767Z,100401.35
2023-01-08T07:08:05.330Z,100400.85
2023-01-08T07:10:34.820Z,100401.88
2023-01-08T07:13:02.957Z,100400.87
2023-01-08T07:15:32.125Z,100404.68
2023-01-08T07:18:00.511Z,100404.50
2023-01-08T07:20:30.931Z,100406.44
2023-01-08T07:23:07.020Z,100405.55
2023-01-08T07:25:35.219Z,100407.77
2023-01-08T07:28:03.565Z,100408.58
2023-01-08T07:30:33.198Z,100409.59
2023-01-08T07:33:03.949Z,100408.01
2023-01-08T07:35:36.825Z,100416.14
2023-01-08T07:38:25.971Z,100418.99
2023-01-08T07:44:31.282Z,100424.95
2023-01-08T07:49:02.254Z,100429.10
2023-01-08T07:50:27.379Z,100427.97
2023-01-08T07:54:12.879Z,100427.59
2023-01-08T07:56:46.458Z,100422.22
2023-01-08T08:00:17.404Z,100419.48
2023-01-08T08:03:22.185Z,100414.14
2023-01-08T08:05:56.966Z,100412.80
2023-01-08T08:08:44.588Z,100406.48
2023-01-08T08:11:18.421Z,100405.28
2023-01-08T08:13:54.177Z,100404.58
2023-01-08T08:16:23.786Z,100407.31
2023-01-08T08:18:53.299Z,100406.80
2023-01-08T08:21:33.888Z,100408.60
2023-01-08T08:24:19.799Z,100411.29
2023-01-08T08:26:51.319Z,100411.24
2023-01-08T08:29:23.759Z,100413.11
2023-01-08T08:31:55.372Z,100409.38
2023-01-08T08:34:30.568Z,100413.64
2023-01-08T08:37:01.204Z,100412.77
2023-01-08T08:39:34.466Z,100409.83
2023-01-08T08:42:02.892Z,100408.71
2023-01-08T08:44:33.326Z,100406.03
2023-01-08T08:47:01.471Z,100408.88
2023-01-08T08:49:29.792Z,100408.00
2023-01-08T08:51:58.791Z,100403.81
2023-01-08T08:54:30.517Z,100402.27
2023-01-08T08:56:58.858Z,100398.67
2023-01-08T08:59:27.191Z,100394.53
2023-01-08T09:01:55.811Z,100393.08
2023-01-08T09:04:24.075Z,100390.54
2023-01-08T09:06:52.655Z,100388.98
2023-01-08T09:09:25.154Z,100389.80
2023-01-08T09:12:07.920Z,100390.91
2023-01-08T09:14:36.133Z,100390.90
2023-01-08T09:17:06.889Z,100386.76
2023-01-08T09:19:44.545Z,100380.59
2023-01-08T09:22:16.295Z,100372.44
2023-01-08T09:24:44.534Z,100368.75
2023-01-08T09:27:13.847Z,100360.14
2023-01-08T09:29:43.077Z,100346.52
2023-01-08T09:32:14.960Z,100337.17
2023-01-08T09:34:44.898Z,100330.46
2023-01-08T09:37:16.969Z,100330.38
2023-01-08T09:39:50.937Z,100323.20
2023-01-08T09:42:25.514Z,100316.58
2023-01-08T09:45:09.843Z,100311.36
2023-01-08T09:47:43.586Z,100304.69
2023-01-08T09:50:14.439Z,100295.52
2023-01-08T09:52:43.813Z,100294.71
2023-01-08T09:55:26.620Z,100286.59
2023-01-08T09:58:57.114Z,100284.54
2023-01-08T10:01:57.847Z,100273.77
2023-01-08T10:05:06.502Z,100266.52
2023-01-08T10:07:54.889Z,100251.29
2023-01-08T10:10:38.544Z,100244.61
2023-01-08T10:13:17.950Z,100241.86
2023-01-08T10:15:48.497Z,100238.63
2023-01-08T10:18:24.900Z,100238.60
2023-01-08T10:20:55.427Z,100237.55
2023-01-08T10:23:25.942Z,100240.95
2023-01-08T10:25:59.418Z,100239.86
2023-01-08T10:28:36.613Z,100243.84
2023-01-08T10:31:09.433Z,100259.99
2023-01-08T10:33:47.441Z,100264.95
2023-01-08T10:36:19.473Z,100259.30
2023-01-08T10:39:04.008Z,100257.89
2023-01-08T10:41:38.413Z,100258.48
2023-01-08T10:44:15.568Z,100259.61
2023-01-08T10:46:48.276Z,100253.02
2023-01-08T10:49:29.108Z,100255.41
2023-01-08T10:51:58.198Z,100252.14
2023-01-08T10:54:41.556Z,100249.42
2023-01-08T10:57:32.888Z,100244.20
2023-01-08T11:00:03.104Z,100245.22
2023-01-08T11:02:38.326Z,100250.11
2023-01-08T11:05:11.587Z,100241.70
2023-01-08T11:07:40.666Z,100236.29
2023-01-08T11:10:25.836Z,100231.25
2023-01-08T11:13:00.354Z,100226.30
2023-01-08T11:15:32.026Z,100225.10
2023-01-08T11:18:11.826Z,100223.38
2023-01-08T11:20:42.169Z,100219.11
2023-01-08T11:23:17.526Z,100218.46
2023-01-08T11:26:19.134Z,100217.10
2023-01-08T11:29:04.974Z,100215.03
2023-01-08T11:31:43.941Z,100215.92
2023-01-08T11:34:41.971Z,100217.57
2023-01-08T11:37:33.835Z,100214.30
2023-01-08T11:40:03.771Z,100216.15
2023-01-08T11:43:20.163Z,100217.60
2023-01-08T11:46:14.507Z,100210.10
2023-01-08T11:48:48.356Z,100205.75
2023-01-08T11:51:52.511Z,100200.83
2023-01-08T11:54:35.990Z,100203.44
2023-01-08T11:57:09.770Z,100199.39
2023-01-08T12:00:01.295Z,100198.51
2023-01-08T12:02:38.478Z,100193.81
2023-01-08T12:05:25.170Z,100191.01
2023-01-08T12:08:31.548Z,100187.82
2023-01-08T12:11:59.251Z,100183.50
2023-01-08T12:14:50.059Z,100186.55
2023-01-08T12:17:34.321Z,100183.73
2023-01-08T12:20:16.213Z,100180.89
2023-01-08T12:23:03.267Z,100180.58
2023-01-08T12:25:44.006Z,100180.64
2023-01-08T12:28:41.532Z,100181.52
2023-01-08T12:31:30.590Z,100180.73
2023-01-08T12:34:16.067Z,100173.36
2023-01-08T12:36:52.265Z,100174.05
2023-01-08T12:39:29.477Z,100171.13
2023-01-08T12:42:11.394Z,100167.63
2023-01-08T12:44:43.731Z,100160.45
2023-01-08T12:47:18.722Z,100153.88
2023-01-08T12:50:17.071Z,100149.19
2023-01-08T12:53:00.029Z,100144.57
2023-01-08T12:55:49.776Z,100147.74
2023-01-08T12:58:26.309Z,100151.81
2023-01-08T13:01:14.174Z,100153.91
2023-01-08T13:03:43.725Z,100151.11
2023-01-08T13:06:15.761Z,100147.44
2023-01-08T13:08:53.526Z,100148.04
2023-01-08T13:11:28.122Z,100149.11
2023-01-08T13:14:09.226Z,100145.59
2023-01-08T13:16:46.713Z,100140.77
2023-01-08T13:19:43.615Z,100139.38
2023-01-08T13:22:28.503Z,100135.83
2023-01-08T13:25:09.383Z,100135.52
2023-01-08T13:27:37.654Z,100142.10
2023-01-08T13:30:40.879Z,100142.90
2023-01-08T13:33:38.570Z,100140.45
2023-01-08T13:36:13.489Z,100134.85
2023-01-08T13:38:59.684Z,100135.18
2023-01-08T13:41:38.846Z,100135.07
2023-01-08T13:44:31.512Z,100133.81
2023-01-08T13:47:04.038Z,100136.02
2023-01-08T13:49:42.963Z,100138.80
2023-01-08T13:52:34.065Z,100139.97
2023-01-08T13:55:12.051Z,100133.23
2023-01-08T13:57:46.969Z,100132.77
2023-01-08T14:00:26.242Z,100126.92
2023-01-08T14:02:57.157Z,100127.88
2023-01-08T14:05:34.890Z,100127.65
2023-01-08T14:08:59.096Z,100131.36
2023-01-08T14:11:49.244Z,100126.92
2023-01-08T14:14:25.326Z,100125.85
2023-01-08T14:16:57.821Z,100123.30
2023-01-08T14:19:27.281Z,100126.56
2023-01-08T14:22:07.040Z,100125.64
2023-01-08T14:24:37.716Z,100126.77
2023-01-08T14:27:05.948Z,100123.67
2023-01-08T14:29:39.753Z,100126.08
2023-01-08T14:32:14.822Z,100130.72
2023-01-08T14:34:51.071Z,100132.10
2023-01-08T14:37:20.392Z,100136.34
2023-01-08T14:39:54.511Z,100132.38
2023-01-08T14:42:44.651Z,100133.23
2023-01-08T14:45:37.624Z,100136.75
2023-01-08T14:48:28.721Z,100132.45
2023-01-08T14:51:08.560Z,100128.80
2023-01-08T14:53:46.388Z,100122.70
2023-01-08T14:56:22.323Z,100123.80
2023-01-08T14:58:51.540Z,100118.95
2023-01-08T15:01:33.608Z,100110.47
2023-01-08T15:04:10.632Z,100111.30
2023-01-08T15:06:39.020Z,100110.02
2023-01-08T15:09:30.326Z,100107.21
2023-01-08T15:12:15.329Z,100102.13
2023-01-08T15:14:53.489Z,100102.24
2023-01-08T15:17:28.134Z,100107.09
2023-01-08T15:20:05.354Z,100110.44
2023-01-08T15:22:36.595Z,100113.77
2023-01-08T15:25:16.122Z,100109.65
2023-01-08T15:27:55.094Z,100107.18
2023-01-08T15:30:35.749Z,100105.02
2023-01-08T15:33:25.124Z,100100.91
2023-01-08T15:36:02.923Z,100101.55
2023-01-08T15:38:51.263Z,100100.95
2023-01-08T15:42:04.430Z,100102.69
2023-01-08T15:44:36.149Z,100098.18
2023-01-08T15:47:04.517Z,100094.55
2023-01-08T15:49:35.060Z,100091.09
2023-01-08T15:52:05.677Z,100091.17
2023-01-08T15:54:34.101Z,100085.89
2023-01-08T15:57:03.642Z,100081.89
2023-01-08T15:59:37.680Z,100084.02
2023-01-08T16:02:06.351Z,100086.09
2023-01-08T16:04:40.996Z,100084.23
2023-01-08T16:07:36.145Z,100084.87
2023-01-08T16:10:10.520Z,100088.21
2023-01-08T16:12:39.008Z,100089.52
2023-01-08T16:15:47.756Z,100082.20
2023-01-08T16:18:21.124Z,100079.23
2023-01-08T16:21:14.388Z,100078.77
2023-01-08T16:24:15.859Z,100078.34
2023-01-08T16:26:54.169Z,100080.09
2023-01-08T16:29:22.673Z,100078.56
2023-01-08T16:31:59.113Z,100075.51
2023-01-08T16:34:31.029Z,100070.70
2023-01-08T16:37:15.254Z,100071.67
2023-01-08T16:39:55.704Z,100069.33
2023-01-08T16:42:35.568Z,100068.46
2023-01-08T16:45:14.581Z,100066.34
2023-01-08T16:48:07.219Z,100067.84
2023-01-08T16:50:38.742Z,100068.80
2023-01-08T16:53:12.357Z,100067.40
2023-01-08T16:56:03.235Z,100069.46
2023-01-08T16:58:36.002Z,100070.02
2023-01-08T17:01:09.918Z,100070.11
2023-01-08T17:03:40.907Z,100069.33
2023-01-08T17:06:14.479Z,100069.34
2023-01-08T17:08:44.396Z,100070.54
2023-01-08T17:11:19.845Z,100068.80
2023-01-08T17:13:50.858Z,100064.39
2023-01-08T17:16:21.718Z,100066.20
2023-01-08T17:18:50.404Z,100063.20
2023-01-08T17:21:23.457Z,100064.31
2023-01-08T17:23:54.919Z,100058.88
2023-01-08T17:26:27.091Z,100058.09
2023-01-08T17:28:59.778Z,100051.45
2023-01-08T17:35:34.233Z,100042.45
2023-01-08T17:38:16.962Z,100036.23
2023-01-08T17:41:33.898Z,100033.74
2023-01-08T17:44:03.528Z,100030.52
2023-01-08T17:46:33.699Z,100026.00
2023-01-08T17:49:04.941Z,100027.38
2023-01-08T17:51:34.696Z,100027.15
2023-01-08T17:54:12.221Z,100025.48
2023-01-08T17:56:54.869Z,100024.55
2023-01-08T17:59:24.526Z,100025.98
2023-01-08T18:01:57.303Z,100027.20
2023-01-08T18:04:33.312Z,100026.50
2023-01-08T18:07:01.711Z,100022.48
2023-01-08T18:09:30.058Z,100020.58
2023-01-08T18:12:20.247Z,100027.55
2023-01-08T18:15:09.457Z,100028.20
2023-01-08T18:18:04.246Z,100026.01
2023-01-08T18:20:40.610Z,100020.83
2023-01-08T18:23:12.972Z,100020.23
2023-01-08T18:25:43.745Z,100017.36
2023-01-08T18:28:21.142Z,100025.02
2023-01-08T18:30:59.429Z,100023.69
2023-01-08T18:33:53.749Z,100021.66
2023-01-08T18:36:37.136Z,100019.88
2023-01-08T18:39:05.204Z,100018.63
2023-01-08T18:41:51.952Z,100021.39
2023-01-08T18:44:20.255Z,100019.40
2023-01-08T18:46:48.471Z,100020.48
2023-01-08T18:49:16.821Z,100021.96
2023-01-08T18:51:45.226Z,100019.24
2023-01-08T18:54:13.625Z,100016.77
2023-01-08T18:56:42.122Z,100014.20
2023-01-08T18:59:11.543Z,100013.68
2023-01-08T19:01:39.791Z,100011.90
2023-01-08T19:04:22.144Z,100009.79
2023-01-08T19:07:12.791Z,100005.48
2023-01-08T19:09:41.404Z,100006.16
2023-01-08T19:12:20.863Z,100000.54
2023-01-08T19:14:53.338Z,99994.97
2023-01-08T19:17:27.291Z,99994.25
2023-01-08T19:19:56.365Z,99996.30
2023-01-08T19:22:28.573Z,99997.79
2023-01-08T19:24:56.979Z,100000.88
2023-01-08T19:27:25.497Z,100002.91
2023-01-08T19:29:55.012Z,100002.33
2023-01-08T19:32:27.822Z,100001.86
2023-01-08T19:35:03.382Z,100004.52
2023-01-08T19:37:32.543Z,100003.21
2023-01-08T19:40:06.721Z,100003.38
2023-01-08T19:43:00.754Z,100005.61
2023-01-08T19:45:31.836Z,100003.67
2023-01-08T19:47:59.986Z,100003.29
2023-01-08T19:50:30.491Z,100001.89
2023-01-08T19:52:59.113Z,100002.61
2023-01-08T19:55:28.470Z,100001.52
2023-01-08T19:57:57.292Z,100004.44
2023-01-08T20:00:25.413Z,99999.89
2023-01-08T20:02:53.582Z,100002.52
2023-01-08T20:05:21.698Z,100000.27
2023-01-08T20:07:52.037Z,99996.81
2023-01-08T20:10:20.130Z,99992.41
2023-01-08T20:12:48.388Z,99990.12
2023-01-08T20:15:19.316Z,99984.21
2023-01-08T20:17:47.465Z,99985.96
2023-01-08T20:20:16.844Z,99988.80
2023-01-08T20:22:45.055Z,99991.76
2023-01-08T20:25:13.274Z,99987.98
2023-01-08T20:27:41.489Z,99982.14
2023-01-08T20:30:11.961Z,99977.65
2023-01-08T20:32:41.948Z,99977.95
2023-01-08T20:35:10.676Z,99977.73
2023-01-08T20:37:41.418Z,99976.33
2023-01-08T20:40:20.879Z,99967.66
2023-01-08T20:42:49.105Z,99963.73
2023-01-08T20:45:19.526Z,99964.61
2023-01-08T20:47:48.002Z,99958.62
2023-01-08T20:50:20.202Z,99955.08
2023-01-08T20:52:49.019Z,99957.04
2023-01-08T20:55:29.191Z,99950.95
2023-01-08T20:58:01.489Z,99951.13
2023-01-08T21:00:42.291Z,99950.17
2023-01-08T21:03:18.336Z,99948.13
2023-01-08T21:05:56.395Z,99945.92
2023-01-08T21:08:33.433Z,99944.52
2023-01-08T21:11:09.110Z,99940.56
2023-01-08T21:13:50.748Z,99938.36
2023-01-08T21:16:29.306Z,99935.61
2023-01-08T21:19:02.779Z,99936.11
2023-01-08T21:21:43.646Z,99934.52
2023-01-08T21:24:20.476Z,99931.39
2023-01-08T21:26:52.661Z,99924.45
2023-01-08T21:29:29.370Z,99917.36
2023-01-08T21:32:04.448Z,99918.27
2023-01-08T21:34:34.317Z,99919.41
2023-01-08T21:37:07.606Z,99913.41
2023-01-08T21:39:51.261Z,99914.14
2023-01-08T21:42:39.354Z,99912.35
2023-01-08T21:45:26.198Z,99913.00
2023-01-08T21:48:03.179Z,99910.63
2023-01-08T21:50:32.831Z,99907.80
2023-01-08T21:53:19.782Z,99913.52
2023-01-08T21:55:47.996Z,99912.90
2023-01-08T21:58:20.206Z,99912.45
2023-01-08T22:00:50.601Z,99913.50
2023-01-08T22:03:29.280Z,99907.02
2023-01-08T22:06:08.545Z,99904.11
2023-01-08T22:08:41.615Z,99897.10
2023-01-08T22:11:20.045Z,99887.70
2023-01-08T22:13:58.963Z,99885.84
2023-01-08T22:16:27.249Z,99888.50
2023-01-08T22:18:58.806Z,99884.66
2023-01-08T22:21:31.785Z,99879.06
2023-01-08T22:24:02.645Z,99879.71
2023-01-08T22:26:37.780Z,99880.44
2023-01-08T22:29:06.725Z,99883.13
2023-01-08T22:31:35.282Z,99884.70
2023-01-08T22:34:14.442Z,99878.14
2023-01-08T22:36:44.974Z,99877.27
2023-01-08T22:39:13.347Z,99866.54
2023-01-08T22:41:43.892Z,99866.69
2023-01-08T22:44:13.174Z,99867.95
2023-01-08T22:46:43.005Z,99865.03
2023-01-08T22:49:15.050Z,99862.20
2023-01-08T22:51:46.432Z,99855.90
2023-01-08T22:54:18.130Z,99853.70
2023-01-08T22:56:46.551Z,99853.41
2023-01-08T22:59:15.009Z,99853.48
2023-01-08T23:01:45.891Z,99851.59
2023-01-08T23:04:42.336Z,99848.61
2023-01-08T23:07:11.871Z,99849.56
2023-01-08T23:09:45.964Z,99844.44
2023-01-08T23:12:22.037Z,99848.39
2023-01-08T23:14:50.345Z,99848.86
2023-01-08T23:17:25.509Z,99845.56
2023-01-08T23:19:56.627Z,99845.41
2023-01-08T23:22:24.693Z,99849.66
2023-01-08T23:25:03.166Z,99852.98
2023-01-08T23:27:33.939Z,99851.41
2023-01-08T23:30:03.757Z,99841.77
2023-01-08T23:32:36.924Z,99845.42
2023-01-08T23:35:05.755Z,99842.69
2023-01-08T23:37:37.145Z,99836.80
2023-01-08T23:40:17.575Z,99833.52
2023-01-08T23:42:53.329Z,99825.44
2023-01-08T23:45:29.425Z,99818.56
2023-01-08T23:48:01.012Z,99819.84
2023-01-08T23:50:30.535Z,99816.98
2023-01-08T23:53:03.988Z,99809.89
2023-01-08T23:55:34.948Z,99809.69
2023-01-08T23:58:07.927Z,99804.66
